Terminal Aerodrome Forecast
Issued by NWS Quad Cities IA IL

Home | Current Version | Previous Version | Text Only | Print | Product List | Glossary On
Versions: 1 2 3 4 5 6 7 8 9 10 11 12 13 14 15 16 17 18 19 20 21
464
FTUS43 KDVN 120520
TAFMLI
TAF
KMLI 120520Z 1206/1306 31017G25KT P6SM OVC030
     FM121000 31013KT P6SM SCT030
     FM122200 29008KT P6SM BKN060=

USA.gov is the U.S. government's official web portal to all federal, state and local government web resources and services.